Boise Air Terminal/Gowen field
KBOI : now visible

Airfield :











YOU CAN JOIN US ON...

 
LOGIN :

Register | Disclaimer

   EN    FR    IT 

 









Legend :    VFR   Marginal VFR   IFR   Intensive IFR   Very Intensive IFR
Visi :
Ceiling :
>= 8 km
>= 3000ft
5 to 8 km
1000 to 3000 ft
1500m to 5 km
500 to 1000 ft
800 to 1500m
200 to 500 ft
< 800m
< 200 ft
Symbols :   Thunderstorms  Fog  Heavy snow  Heavy precipitations  Wind > 20 kt






- Airport Elevation : 2871 ft
- IATA code : BOI


KBOI - Boise Air Terminal/Gowen field

CURRENT METAR :
  • 291453Z 00000KT 1/4SM R10R/1400V1600FT FG VV001 00/M01 A3030 RMK AO2 SLP276 T00001011 52012

EXPIRED METARs :
  • 291416Z 24003KT 1/4SM R10R/1600V1800FT FG VV001 00/M01 A3029 RMK AO2 T00001006
  • 291401Z 1/4SM R10R/1600V2400FT FG VV001 00/00 A3028 RMK AO2 T00000000
  • 291326Z 00000KT 1/4SM R10R/1600V1800FT FG VV001 01/01 A3028 RMK AO2 T00060006
  • 291253Z 35005KT 1/4SM R10R/1800V2200FT FG VV001 01/01 A3028 RMK AO2 SLP268 T00110006

TAF KBOI
Valid from the 29 at 15:00 until the 30 at 12:00 UTC


291437Z 2915/3012 VRB03KT 1/2SM FG OVC001
TEMPO 2916/2917 1SM BR BKN005
FM291700 VRB06KT P6SM OVC050
FM300100 13006KT 6SM -RA BR OVC025



MET'MAP, your aeronautical weather chart ! - Copyright ORBIFLY December 2007 - Disclaimer

ORBIFLY MET'MAP TEAM :

Programming & Development : Alexandra Zaïnal
Concept & original design : Baudouin d'Aumeries
Assistance for programming : Marc-Olivier Méhu
Technical & hardware support : Manuel Goepfert

Contact : metmap@orbifly.com




SOURCES & CREDITS :

   NOAA       Earth
Advisory